sensor_id;sensor_type;location;lat;lon;timestamp;P1;durP1;ratioP1;P2;durP2;ratioP2
6864;SDS011;3471;49.678;8.388;2023-05-10T00:01:43;2.20;;;1.10;;
6864;SDS011;3471;49.678;8.388;2023-05-10T00:04:08;5.50;;;1.20;;
6864;SDS011;3471;49.678;8.388;2023-05-10T00:06:34;1.30;;;0.90;;
6864;SDS011;3471;49.678;8.388;2023-05-10T00:08:59;2.53;;;0.95;;
6864;SDS011;3471;49.678;8.388;2023-05-10T00:11:25;5.53;;;1.37;;
6864;SDS011;3471;49.678;8.388;2023-05-10T00:13:51;2.70;;;1.20;;
6864;SDS011;3471;49.678;8.388;2023-05-10T00:16:16;1.50;;;1.10;;
6864;SDS011;3471;49.678;8.388;2023-05-10T00:18:42;1.40;;;1.20;;
6864;SDS011;3471;49.678;8.388;2023-05-10T00:21:07;1.80;;;1.20;;
6864;SDS011;3471;49.678;8.388;2023-05-10T00:23:33;3.10;;;1.30;;
6864;SDS011;3471;49.678;8.388;2023-05-10T00:25:59;5.30;;;1.40;;
6864;SDS011;3471;49.678;8.388;2023-05-10T00:28:24;1.70;;;1.10;;
6864;SDS011;3471;49.678;8.388;2023-05-10T00:30:52;2.03;;;1.10;;
6864;SDS011;3471;49.678;8.388;2023-05-10T00:33:17;1.50;;;1.10;;
6864;SDS011;3471;49.678;8.388;2023-05-10T00:35:43;2.20;;;1.90;;
6864;SDS011;3471;49.678;8.388;2023-05-10T00:38:08;1.60;;;1.17;;
6864;SDS011;3471;49.678;8.388;2023-05-10T00:40:35;2.20;;;2.00;;
6864;SDS011;3471;49.678;8.388;2023-05-10T00:43:02;1.80;;;1.50;;
6864;SDS011;3471;49.678;8.388;2023-05-10T00:45:28;1.50;;;1.10;;
6864;SDS011;3471;49.678;8.388;2023-05-10T00:47:55;1.90;;;1.50;;
6864;SDS011;3471;49.678;8.388;2023-05-10T00:50:24;1.40;;;1.13;;
6864;SDS011;3471;49.678;8.388;2023-05-10T00:52:49;1.70;;;1.10;;
6864;SDS011;3471;49.678;8.388;2023-05-10T00:55:15;1.30;;;1.00;;
6864;SDS011;3471;49.678;8.388;2023-05-10T00:57:41;1.55;;;1.10;;
6864;SDS011;3471;49.678;8.388;2023-05-10T01:00:07;1.40;;;1.23;;
6864;SDS011;3471;49.678;8.388;2023-05-10T01:02:34;1.63;;;0.97;;
6864;SDS011;3471;49.678;8.388;2023-05-10T01:05:00;1.50;;;1.20;;
6864;SDS011;3471;49.678;8.388;2023-05-10T01:07:28;3.00;;;2.10;;
6864;SDS011;3471;49.678;8.388;2023-05-10T01:09:54;2.20;;;1.35;;
6864;SDS011;3471;49.678;8.388;2023-05-10T01:12:20;2.67;;;1.98;;
6864;SDS011;3471;49.678;8.388;2023-05-10T01:14:46;1.70;;;1.50;;
6864;SDS011;3471;49.678;8.388;2023-05-10T01:17:12;3.50;;;1.40;;
6864;SDS011;3471;49.678;8.388;2023-05-10T01:19:39;2.20;;;1.70;;
6864;SDS011;3471;49.678;8.388;2023-05-10T01:22:15;2.20;;;1.42;;
6864;SDS011;3471;49.678;8.388;2023-05-10T01:25:03;2.78;;;1.80;;
6864;SDS011;3471;49.678;8.388;2023-05-10T01:33:00;2.72;;;1.52;;
6864;SDS011;3471;49.678;8.388;2023-05-10T01:35:48;1.60;;;1.38;;
6864;SDS011;3471;49.678;8.388;2023-05-10T01:38:41;2.30;;;2.10;;
6864;SDS011;3471;49.678;8.388;2023-05-10T01:44:09;1.60;;;1.30;;
6864;SDS011;3471;49.678;8.388;2023-05-10T01:46:58;1.70;;;1.60;;
6864;SDS011;3471;49.678;8.388;2023-05-10T01:49:31;1.90;;;1.40;;
6864;SDS011;3471;49.678;8.388;2023-05-10T01:52:04;1.90;;;1.50;;
6864;SDS011;3471;49.678;8.388;2023-05-10T01:54:34;1.40;;;1.20;;
6864;SDS011;3471;49.678;8.388;2023-05-10T01:57:03;2.47;;;2.03;;
6864;SDS011;3471;49.678;8.388;2023-05-10T01:59:33;2.33;;;1.95;;
6864;SDS011;3471;49.678;8.388;2023-05-10T02:02:01;3.38;;;3.03;;
6864;SDS011;3471;49.678;8.388;2023-05-10T02:04:29;2.70;;;2.08;;
6864;SDS011;3471;49.678;8.388;2023-05-10T02:06:56;2.08;;;1.88;;
6864;SDS011;3471;49.678;8.388;2023-05-10T02:09:22;3.10;;;2.38;;
6864;SDS011;3471;49.678;8.388;2023-05-10T02:11:49;2.88;;;2.03;;
6864;SDS011;3471;49.678;8.388;2023-05-10T02:14:15;4.63;;;2.20;;
6864;SDS011;3471;49.678;8.388;2023-05-10T02:16:43;2.10;;;1.90;;
6864;SDS011;3471;49.678;8.388;2023-05-10T02:19:11;3.50;;;2.10;;
6864;SDS011;3471;49.678;8.388;2023-05-10T02:21:39;10.95;;;2.28;;
6864;SDS011;3471;49.678;8.388;2023-05-10T02:24:06;7.35;;;2.17;;
6864;SDS011;3471;49.678;8.388;2023-05-10T02:26:34;1.98;;;1.77;;
6864;SDS011;3471;49.678;8.388;2023-05-10T02:29:04;2.65;;;2.22;;
6864;SDS011;3471;49.678;8.388;2023-05-10T02:31:32;9.23;;;2.10;;
6864;SDS011;3471;49.678;8.388;2023-05-10T02:34:00;3.20;;;1.90;;
6864;SDS011;3471;49.678;8.388;2023-05-10T02:36:27;3.10;;;1.73;;
6864;SDS011;3471;49.678;8.388;2023-05-10T02:38:54;2.22;;;1.98;;
6864;SDS011;3471;49.678;8.388;2023-05-10T02:41:21;2.40;;;2.13;;
6864;SDS011;3471;49.678;8.388;2023-05-10T02:43:50;3.53;;;3.08;;
6864;SDS011;3471;49.678;8.388;2023-05-10T02:46:17;2.63;;;2.13;;
6864;SDS011;3471;49.678;8.388;2023-05-10T02:48:43;3.50;;;2.40;;
6864;SDS011;3471;49.678;8.388;2023-05-10T02:51:08;2.83;;;2.23;;
6864;SDS011;3471;49.678;8.388;2023-05-10T02:53:40;4.30;;;2.90;;
6864;SDS011;3471;49.678;8.388;2023-05-10T02:56:13;3.17;;;2.17;;
6864;SDS011;3471;49.678;8.388;2023-05-10T02:58:44;2.13;;;1.92;;
6864;SDS011;3471;49.678;8.388;2023-05-10T03:01:11;2.70;;;2.50;;
6864;SDS011;3471;49.678;8.388;2023-05-10T03:03:36;2.00;;;1.80;;
6864;SDS011;3471;49.678;8.388;2023-05-10T03:06:02;2.10;;;1.90;;
6864;SDS011;3471;49.678;8.388;2023-05-10T03:08:28;2.40;;;1.95;;
6864;SDS011;3471;49.678;8.388;2023-05-10T03:13:54;2.35;;;2.15;;
6864;SDS011;3471;49.678;8.388;2023-05-10T03:16:27;2.60;;;2.40;;
6864;SDS011;3471;49.678;8.388;2023-05-10T03:19:01;2.55;;;2.35;;
6864;SDS011;3471;49.678;8.388;2023-05-10T03:21:36;2.17;;;1.98;;
6864;SDS011;3471;49.678;8.388;2023-05-10T03:24:07;3.00;;;2.70;;
6864;SDS011;3471;49.678;8.388;2023-05-10T03:26:33;9.60;;;3.47;;
6864;SDS011;3471;49.678;8.388;2023-05-10T03:29:01;3.22;;;2.92;;
6864;SDS011;3471;49.678;8.388;2023-05-10T03:31:29;3.30;;;2.50;;
6864;SDS011;3471;49.678;8.388;2023-05-10T03:33:54;4.33;;;2.80;;
6864;SDS011;3471;49.678;8.388;2023-05-10T03:36:20;3.10;;;2.07;;
6864;SDS011;3471;49.678;8.388;2023-05-10T03:38:46;4.23;;;3.83;;
6864;SDS011;3471;49.678;8.388;2023-05-10T03:41:11;5.45;;;2.35;;
6864;SDS011;3471;49.678;8.388;2023-05-10T03:43:37;2.40;;;2.08;;
6864;SDS011;3471;49.678;8.388;2023-05-10T03:46:04;2.37;;;2.17;;
6864;SDS011;3471;49.678;8.388;2023-05-10T03:48:30;3.70;;;3.40;;
6864;SDS011;3471;49.678;8.388;2023-05-10T03:50:57;3.70;;;2.30;;
6864;SDS011;3471;49.678;8.388;2023-05-10T03:53:22;3.20;;;1.97;;
6864;SDS011;3471;49.678;8.388;2023-05-10T03:55:48;3.80;;;3.00;;
6864;SDS011;3471;49.678;8.388;2023-05-10T03:58:14;3.10;;;1.88;;
6864;SDS011;3471;49.678;8.388;2023-05-10T04:00:40;3.30;;;3.00;;
6864;SDS011;3471;49.678;8.388;2023-05-10T04:03:08;6.63;;;2.27;;
6864;SDS011;3471;49.678;8.388;2023-05-10T04:05:35;6.60;;;2.63;;
6864;SDS011;3471;49.678;8.388;2023-05-10T04:08:01;6.97;;;2.17;;
6864;SDS011;3471;49.678;8.388;2023-05-10T04:10:26;3.80;;;2.50;;
6864;SDS011;3471;49.678;8.388;2023-05-10T04:12:52;1.90;;;1.60;;
6864;SDS011;3471;49.678;8.388;2023-05-10T04:15:18;2.27;;;2.03;;
6864;SDS011;3471;49.678;8.388;2023-05-10T04:17:43;3.30;;;3.00;;
6864;SDS011;3471;49.678;8.388;2023-05-10T04:20:09;2.20;;;2.00;;
6864;SDS011;3471;49.678;8.388;2023-05-10T04:22:35;2.70;;;2.50;;
6864;SDS011;3471;49.678;8.388;2023-05-10T04:25:01;2.15;;;1.95;;
6864;SDS011;3471;49.678;8.388;2023-05-10T04:27:26;2.47;;;2.28;;
6864;SDS011;3471;49.678;8.388;2023-05-10T04:29:52;1.73;;;1.60;;
6864;SDS011;3471;49.678;8.388;2023-05-10T04:32:17;3.50;;;2.90;;
6864;SDS011;3471;49.678;8.388;2023-05-10T04:34:43;3.15;;;2.17;;
6864;SDS011;3471;49.678;8.388;2023-05-10T04:37:09;3.13;;;2.28;;
6864;SDS011;3471;49.678;8.388;2023-05-10T04:39:35;3.13;;;2.60;;
6864;SDS011;3471;49.678;8.388;2023-05-10T04:42:01;4.80;;;3.20;;
6864;SDS011;3471;49.678;8.388;2023-05-10T04:44:28;2.50;;;1.80;;
6864;SDS011;3471;49.678;8.388;2023-05-10T04:46:54;1.92;;;1.65;;
6864;SDS011;3471;49.678;8.388;2023-05-10T04:49:20;3.50;;;1.90;;
6864;SDS011;3471;49.678;8.388;2023-05-10T04:51:45;2.70;;;2.50;;
6864;SDS011;3471;49.678;8.388;2023-05-10T04:54:11;1.50;;;1.25;;
6864;SDS011;3471;49.678;8.388;2023-05-10T04:56:37;2.07;;;1.87;;
6864;SDS011;3471;49.678;8.388;2023-05-10T04:59:03;1.80;;;1.70;;
6864;SDS011;3471;49.678;8.388;2023-05-10T05:01:29;5.82;;;2.95;;
6864;SDS011;3471;49.678;8.388;2023-05-10T05:03:54;5.10;;;2.70;;
6864;SDS011;3471;49.678;8.388;2023-05-10T05:06:20;4.47;;;2.33;;
6864;SDS011;3471;49.678;8.388;2023-05-10T05:08:46;2.20;;;2.00;;
6864;SDS011;3471;49.678;8.388;2023-05-10T05:11:11;3.40;;;3.10;;
6864;SDS011;3471;49.678;8.388;2023-05-10T05:13:37;3.37;;;3.07;;
6864;SDS011;3471;49.678;8.388;2023-05-10T05:16:03;3.50;;;2.72;;
6864;SDS011;3471;49.678;8.388;2023-05-10T05:18:30;6.25;;;2.80;;
6864;SDS011;3471;49.678;8.388;2023-05-10T05:20:55;4.93;;;2.63;;
6864;SDS011;3471;49.678;8.388;2023-05-10T05:23:21;4.07;;;3.53;;
6864;SDS011;3471;49.678;8.388;2023-05-10T05:25:49;9.43;;;3.75;;
6864;SDS011;3471;49.678;8.388;2023-05-10T05:28:19;7.70;;;4.20;;
6864;SDS011;3471;49.678;8.388;2023-05-10T05:30:47;5.10;;;2.65;;
6864;SDS011;3471;49.678;8.388;2023-05-10T05:33:13;2.60;;;2.40;;
6864;SDS011;3471;49.678;8.388;2023-05-10T05:35:40;3.25;;;2.95;;
6864;SDS011;3471;49.678;8.388;2023-05-10T05:38:06;9.80;;;2.90;;
6864;SDS011;3471;49.678;8.388;2023-05-10T05:40:31;3.80;;;3.30;;
6864;SDS011;3471;49.678;8.388;2023-05-10T05:42:57;4.30;;;3.90;;
6864;SDS011;3471;49.678;8.388;2023-05-10T05:45:22;4.20;;;3.80;;
6864;SDS011;3471;49.678;8.388;2023-05-10T05:47:48;3.77;;;3.47;;
6864;SDS011;3471;49.678;8.388;2023-05-10T05:50:14;6.80;;;3.63;;
6864;SDS011;3471;49.678;8.388;2023-05-10T05:52:39;5.73;;;3.97;;
6864;SDS011;3471;49.678;8.388;2023-05-10T05:55:05;3.50;;;3.20;;
6864;SDS011;3471;49.678;8.388;2023-05-10T05:57:30;4.57;;;4.18;;
6864;SDS011;3471;49.678;8.388;2023-05-10T05:59:56;8.10;;;3.92;;
6864;SDS011;3471;49.678;8.388;2023-05-10T06:02:22;4.20;;;3.90;;
6864;SDS011;3471;49.678;8.388;2023-05-10T06:04:47;4.63;;;4.23;;
6864;SDS011;3471;49.678;8.388;2023-05-10T06:07:13;4.27;;;3.97;;
6864;SDS011;3471;49.678;8.388;2023-05-10T06:09:38;5.33;;;4.83;;
6864;SDS011;3471;49.678;8.388;2023-05-10T06:12:04;4.93;;;4.43;;
6864;SDS011;3471;49.678;8.388;2023-05-10T06:14:30;4.10;;;3.70;;
6864;SDS011;3471;49.678;8.388;2023-05-10T06:16:55;6.90;;;4.90;;
6864;SDS011;3471;49.678;8.388;2023-05-10T06:19:21;5.63;;;4.40;;
6864;SDS011;3471;49.678;8.388;2023-05-10T06:21:46;8.13;;;4.87;;
6864;SDS011;3471;49.678;8.388;2023-05-10T06:24:12;4.93;;;4.43;;
6864;SDS011;3471;49.678;8.388;2023-05-10T06:26:38;4.40;;;3.73;;
6864;SDS011;3471;49.678;8.388;2023-05-10T06:29:03;4.07;;;3.67;;
6864;SDS011;3471;49.678;8.388;2023-05-10T06:31:29;4.50;;;4.13;;
6864;SDS011;3471;49.678;8.388;2023-05-10T06:33:54;3.58;;;3.28;;
6864;SDS011;3471;49.678;8.388;2023-05-10T06:36:20;4.03;;;2.70;;
6864;SDS011;3471;49.678;8.388;2023-05-10T06:38:45;3.00;;;2.63;;
6864;SDS011;3471;49.678;8.388;2023-05-10T06:41:11;7.53;;;4.18;;
6864;SDS011;3471;49.678;8.388;2023-05-10T06:43:36;8.80;;;3.63;;
6864;SDS011;3471;49.678;8.388;2023-05-10T06:46:05;4.13;;;3.73;;
6864;SDS011;3471;49.678;8.388;2023-05-10T06:48:31;3.10;;;2.58;;
6864;SDS011;3471;49.678;8.388;2023-05-10T06:50:57;2.92;;;2.65;;
6864;SDS011;3471;49.678;8.388;2023-05-10T06:53:22;3.40;;;3.10;;
6864;SDS011;3471;49.678;8.388;2023-05-10T06:55:49;3.90;;;3.30;;
6864;SDS011;3471;49.678;8.388;2023-05-10T06:58:14;3.50;;;3.17;;
6864;SDS011;3471;49.678;8.388;2023-05-10T07:00:42;3.30;;;2.83;;
6864;SDS011;3471;49.678;8.388;2023-05-10T07:03:09;3.25;;;2.95;;
6864;SDS011;3471;49.678;8.388;2023-05-10T07:05:35;3.40;;;2.30;;
6864;SDS011;3471;49.678;8.388;2023-05-10T07:08:01;8.23;;;3.27;;
6864;SDS011;3471;49.678;8.388;2023-05-10T07:10:26;3.00;;;2.80;;
6864;SDS011;3471;49.678;8.388;2023-05-10T07:12:52;2.50;;;2.30;;
6864;SDS011;3471;49.678;8.388;2023-05-10T07:15:17;2.93;;;2.23;;
6864;SDS011;3471;49.678;8.388;2023-05-10T07:17:43;5.40;;;2.58;;
6864;SDS011;3471;49.678;8.388;2023-05-10T07:20:09;2.80;;;2.30;;
6864;SDS011;3471;49.678;8.388;2023-05-10T07:22:34;2.70;;;2.30;;
6864;SDS011;3471;49.678;8.388;2023-05-10T07:25:00;2.17;;;1.97;;
6864;SDS011;3471;49.678;8.388;2023-05-10T07:27:26;2.57;;;1.70;;
6864;SDS011;3471;49.678;8.388;2023-05-10T07:29:51;8.30;;;2.80;;
6864;SDS011;3471;49.678;8.388;2023-05-10T07:32:17;2.03;;;1.52;;
6864;SDS011;3471;49.678;8.388;2023-05-10T07:34:42;3.20;;;2.60;;
6864;SDS011;3471;49.678;8.388;2023-05-10T07:37:08;2.60;;;1.65;;
6864;SDS011;3471;49.678;8.388;2023-05-10T07:39:34;3.28;;;2.05;;
6864;SDS011;3471;49.678;8.388;2023-05-10T07:41:59;2.83;;;1.58;;
6864;SDS011;3471;49.678;8.388;2023-05-10T07:44:25;3.15;;;2.03;;
6864;SDS011;3471;49.678;8.388;2023-05-10T07:46:50;4.90;;;1.50;;
6864;SDS011;3471;49.678;8.388;2023-05-10T07:49:16;2.70;;;2.30;;
6864;SDS011;3471;49.678;8.388;2023-05-10T07:51:42;2.13;;;1.50;;
6864;SDS011;3471;49.678;8.388;2023-05-10T07:54:07;4.30;;;2.10;;
6864;SDS011;3471;49.678;8.388;2023-05-10T07:56:33;4.70;;;1.90;;
6864;SDS011;3471;49.678;8.388;2023-05-10T07:58:59;1.80;;;1.23;;
6864;SDS011;3471;49.678;8.388;2023-05-10T08:01:25;2.00;;;1.60;;
6864;SDS011;3471;49.678;8.388;2023-05-10T08:03:51;2.30;;;2.10;;
6864;SDS011;3471;49.678;8.388;2023-05-10T08:06:18;1.90;;;1.43;;
6864;SDS011;3471;49.678;8.388;2023-05-10T08:08:45;14.70;;;2.13;;
6864;SDS011;3471;49.678;8.388;2023-05-10T08:11:14;1.50;;;1.30;;
6864;SDS011;3471;49.678;8.388;2023-05-10T08:13:41;2.28;;;1.60;;
6864;SDS011;3471;49.678;8.388;2023-05-10T08:16:06;1.60;;;1.38;;
6864;SDS011;3471;49.678;8.388;2023-05-10T08:18:32;4.80;;;1.80;;
6864;SDS011;3471;49.678;8.388;2023-05-10T08:20:57;2.70;;;1.50;;
6864;SDS011;3471;49.678;8.388;2023-05-10T08:23:23;2.43;;;1.43;;
6864;SDS011;3471;49.678;8.388;2023-05-10T08:25:49;1.93;;;1.00;;
6864;SDS011;3471;49.678;8.388;2023-05-10T08:28:14;11.30;;;1.90;;
6864;SDS011;3471;49.678;8.388;2023-05-10T08:30:40;1.70;;;1.20;;
6864;SDS011;3471;49.678;8.388;2023-05-10T08:33:05;3.80;;;1.83;;
6864;SDS011;3471;49.678;8.388;2023-05-10T08:35:31;1.60;;;1.10;;
6864;SDS011;3471;49.678;8.388;2023-05-10T08:37:58;4.10;;;1.40;;
6864;SDS011;3471;49.678;8.388;2023-05-10T08:40:23;1.63;;;1.00;;
6864;SDS011;3471;49.678;8.388;2023-05-10T08:42:55;4.80;;;1.50;;
6864;SDS011;3471;49.678;8.388;2023-05-10T08:45:30;1.90;;;1.42;;
6864;SDS011;3471;49.678;8.388;2023-05-10T08:47:59;1.90;;;1.25;;
6864;SDS011;3471;49.678;8.388;2023-05-10T08:50:39;3.90;;;1.60;;
6864;SDS011;3471;49.678;8.388;2023-05-10T08:53:11;1.70;;;1.20;;
6864;SDS011;3471;49.678;8.388;2023-05-10T08:55:38;1.60;;;1.00;;
6864;SDS011;3471;49.678;8.388;2023-05-10T08:58:05;2.00;;;1.30;;
6864;SDS011;3471;49.678;8.388;2023-05-10T09:00:32;2.10;;;1.20;;
6864;SDS011;3471;49.678;8.388;2023-05-10T09:02:58;4.80;;;1.10;;
6864;SDS011;3471;49.678;8.388;2023-05-10T09:05:24;2.45;;;1.70;;
6864;SDS011;3471;49.678;8.388;2023-05-10T09:07:49;1.50;;;1.10;;
6864;SDS011;3471;49.678;8.388;2023-05-10T09:10:15;1.50;;;0.90;;
6864;SDS011;3471;49.678;8.388;2023-05-10T09:12:41;3.00;;;1.40;;
6864;SDS011;3471;49.678;8.388;2023-05-10T09:15:10;1.75;;;1.10;;
6864;SDS011;3471;49.678;8.388;2023-05-10T09:17:36;1.48;;;1.05;;
6864;SDS011;3471;49.678;8.388;2023-05-10T09:20:04;2.30;;;1.70;;
6864;SDS011;3471;49.678;8.388;2023-05-10T09:22:30;1.45;;;0.85;;
6864;SDS011;3471;49.678;8.388;2023-05-10T09:27:35;2.30;;;1.25;;
6864;SDS011;3471;49.678;8.388;2023-05-10T09:30:01;1.77;;;1.25;;
6864;SDS011;3471;49.678;8.388;2023-05-10T09:32:41;4.38;;;1.67;;
6864;SDS011;3471;49.678;8.388;2023-05-10T09:35:08;3.00;;;1.63;;
6864;SDS011;3471;49.678;8.388;2023-05-10T09:37:34;2.50;;;1.60;;
6864;SDS011;3471;49.678;8.388;2023-05-10T09:40:03;5.90;;;1.17;;
6864;SDS011;3471;49.678;8.388;2023-05-10T09:42:30;2.38;;;1.13;;
6864;SDS011;3471;49.678;8.388;2023-05-10T09:45:00;5.20;;;1.10;;
6864;SDS011;3471;49.678;8.388;2023-05-10T09:47:27;1.60;;;0.90;;
6864;SDS011;3471;49.678;8.388;2023-05-10T09:49:52;3.28;;;1.13;;
6864;SDS011;3471;49.678;8.388;2023-05-10T09:52:22;1.73;;;1.23;;
6864;SDS011;3471;49.678;8.388;2023-05-10T09:54:54;1.70;;;1.40;;
6864;SDS011;3471;49.678;8.388;2023-05-10T09:57:20;1.65;;;1.25;;
6864;SDS011;3471;49.678;8.388;2023-05-10T09:59:47;5.00;;;1.70;;
6864;SDS011;3471;49.678;8.388;2023-05-10T10:02:13;3.42;;;2.55;;
6864;SDS011;3471;49.678;8.388;2023-05-10T10:04:39;3.33;;;2.38;;
6864;SDS011;3471;49.678;8.388;2023-05-10T10:07:05;2.10;;;1.90;;
6864;SDS011;3471;49.678;8.388;2023-05-10T10:09:32;2.10;;;1.90;;
6864;SDS011;3471;49.678;8.388;2023-05-10T10:12:01;2.00;;;1.80;;
6864;SDS011;3471;49.678;8.388;2023-05-10T10:14:28;2.30;;;2.10;;
6864;SDS011;3471;49.678;8.388;2023-05-10T10:16:54;1.98;;;1.45;;
6864;SDS011;3471;49.678;8.388;2023-05-10T10:19:20;2.60;;;1.50;;
6864;SDS011;3471;49.678;8.388;2023-05-10T10:21:47;1.92;;;1.58;;
6864;SDS011;3471;49.678;8.388;2023-05-10T10:24:14;3.60;;;2.90;;
6864;SDS011;3471;49.678;8.388;2023-05-10T10:26:39;8.10;;;1.80;;
6864;SDS011;3471;49.678;8.388;2023-05-10T10:31:47;2.17;;;1.90;;
6864;SDS011;3471;49.678;8.388;2023-05-10T10:34:37;1.70;;;1.30;;
6864;SDS011;3471;49.678;8.388;2023-05-10T10:37:04;3.60;;;1.90;;
6864;SDS011;3471;49.678;8.388;2023-05-10T10:39:31;1.90;;;1.13;;
6864;SDS011;3471;49.678;8.388;2023-05-10T10:41:57;1.50;;;1.00;;
6864;SDS011;3471;49.678;8.388;2023-05-10T10:52:42;1.50;;;1.00;;
6864;SDS011;3471;49.678;8.388;2023-05-10T10:57:54;1.80;;;1.02;;
6864;SDS011;3471;49.678;8.388;2023-05-10T11:00:32;1.50;;;1.05;;
6864;SDS011;3471;49.678;8.388;2023-05-10T11:05:38;3.40;;;1.00;;
6864;SDS011;3471;49.678;8.388;2023-05-10T11:08:10;2.00;;;0.95;;
6864;SDS011;3471;49.678;8.388;2023-05-10T11:10:38;1.40;;;1.00;;
6864;SDS011;3471;49.678;8.388;2023-05-10T11:13:08;2.30;;;1.50;;
6864;SDS011;3471;49.678;8.388;2023-05-10T11:15:38;2.40;;;1.30;;
6864;SDS011;3471;49.678;8.388;2023-05-10T11:20:52;2.00;;;1.13;;
6864;SDS011;3471;49.678;8.388;2023-05-10T11:23:20;1.80;;;1.20;;
6864;SDS011;3471;49.678;8.388;2023-05-10T11:25:46;9.85;;;2.25;;
6864;SDS011;3471;49.678;8.388;2023-05-10T11:28:14;2.22;;;1.10;;
6864;SDS011;3471;49.678;8.388;2023-05-10T11:30:41;3.55;;;1.40;;
6864;SDS011;3471;49.678;8.388;2023-05-10T11:33:09;3.45;;;1.42;;
6864;SDS011;3471;49.678;8.388;2023-05-10T11:35:40;2.90;;;1.67;;
6864;SDS011;3471;49.678;8.388;2023-05-10T11:38:09;13.25;;;1.80;;
6864;SDS011;3471;49.678;8.388;2023-05-10T11:40:37;1.60;;;1.20;;
6864;SDS011;3471;49.678;8.388;2023-05-10T11:43:03;3.27;;;1.70;;
6864;SDS011;3471;49.678;8.388;2023-05-10T11:45:33;5.50;;;1.40;;
6864;SDS011;3471;49.678;8.388;2023-05-10T11:48:00;2.10;;;1.60;;
6864;SDS011;3471;49.678;8.388;2023-05-10T11:50:26;2.70;;;2.10;;
6864;SDS011;3471;49.678;8.388;2023-05-10T11:52:56;4.00;;;1.60;;
6864;SDS011;3471;49.678;8.388;2023-05-10T11:55:22;1.90;;;1.10;;
6864;SDS011;3471;49.678;8.388;2023-05-10T11:57:52;2.80;;;1.50;;
6864;SDS011;3471;49.678;8.388;2023-05-10T12:00:19;7.13;;;2.33;;
6864;SDS011;3471;49.678;8.388;2023-05-10T12:02:45;2.40;;;1.50;;
6864;SDS011;3471;49.678;8.388;2023-05-10T12:05:11;3.20;;;1.50;;
6864;SDS011;3471;49.678;8.388;2023-05-10T12:07:38;1.60;;;1.03;;
6864;SDS011;3471;49.678;8.388;2023-05-10T12:15:12;3.08;;;1.58;;
6864;SDS011;3471;49.678;8.388;2023-05-10T12:17:45;2.00;;;1.27;;
6864;SDS011;3471;49.678;8.388;2023-05-10T12:25:19;4.00;;;1.83;;
6864;SDS011;3471;49.678;8.388;2023-05-10T12:27:54;1.90;;;1.37;;
6864;SDS011;3471;49.678;8.388;2023-05-10T12:30:25;3.85;;;1.73;;
6864;SDS011;3471;49.678;8.388;2023-05-10T12:32:53;9.20;;;1.90;;
6864;SDS011;3471;49.678;8.388;2023-05-10T12:35:24;2.60;;;1.50;;
6864;SDS011;3471;49.678;8.388;2023-05-10T12:37:50;2.33;;;1.45;;
6864;SDS011;3471;49.678;8.388;2023-05-10T12:40:15;1.73;;;1.23;;
6864;SDS011;3471;49.678;8.388;2023-05-10T12:42:41;2.00;;;1.30;;
6864;SDS011;3471;49.678;8.388;2023-05-10T12:45:08;3.25;;;1.65;;
6864;SDS011;3471;49.678;8.388;2023-05-10T12:47:34;6.22;;;2.17;;
6864;SDS011;3471;49.678;8.388;2023-05-10T12:50:00;3.60;;;1.80;;
6864;SDS011;3471;49.678;8.388;2023-05-10T12:52:27;1.90;;;1.20;;
6864;SDS011;3471;49.678;8.388;2023-05-10T12:54:54;2.60;;;1.50;;
6864;SDS011;3471;49.678;8.388;2023-05-10T12:57:20;5.10;;;1.40;;
6864;SDS011;3471;49.678;8.388;2023-05-10T12:59:45;1.40;;;0.90;;
6864;SDS011;3471;49.678;8.388;2023-05-10T13:02:11;1.50;;;1.00;;
6864;SDS011;3471;49.678;8.388;2023-05-10T13:04:37;1.50;;;1.07;;
6864;SDS011;3471;49.678;8.388;2023-05-10T13:07:05;3.90;;;1.63;;
6864;SDS011;3471;49.678;8.388;2023-05-10T13:09:31;6.13;;;1.65;;
6864;SDS011;3471;49.678;8.388;2023-05-10T13:11:57;1.60;;;1.30;;
6864;SDS011;3471;49.678;8.388;2023-05-10T13:14:22;4.10;;;1.95;;
6864;SDS011;3471;49.678;8.388;2023-05-10T13:16:48;3.60;;;1.50;;
6864;SDS011;3471;49.678;8.388;2023-05-10T13:19:13;2.13;;;1.03;;
6864;SDS011;3471;49.678;8.388;2023-05-10T13:21:39;3.10;;;1.33;;
6864;SDS011;3471;49.678;8.388;2023-05-10T13:24:09;1.75;;;1.27;;
6864;SDS011;3471;49.678;8.388;2023-05-10T13:26:35;5.20;;;2.30;;
6864;SDS011;3471;49.678;8.388;2023-05-10T13:29:01;2.20;;;1.67;;
6864;SDS011;3471;49.678;8.388;2023-05-10T13:31:27;2.40;;;1.40;;
6864;SDS011;3471;49.678;8.388;2023-05-10T13:33:52;3.70;;;1.90;;
6864;SDS011;3471;49.678;8.388;2023-05-10T13:36:18;3.10;;;2.15;;
6864;SDS011;3471;49.678;8.388;2023-05-10T13:38:43;2.07;;;1.17;;
6864;SDS011;3471;49.678;8.388;2023-05-10T13:41:09;4.60;;;1.60;;
6864;SDS011;3471;49.678;8.388;2023-05-10T13:43:35;4.45;;;1.50;;
6864;SDS011;3471;49.678;8.388;2023-05-10T13:46:01;1.70;;;1.20;;
6864;SDS011;3471;49.678;8.388;2023-05-10T13:48:27;5.13;;;2.23;;
6864;SDS011;3471;49.678;8.388;2023-05-10T13:50:53;3.70;;;1.10;;
6864;SDS011;3471;49.678;8.388;2023-05-10T13:53:19;2.83;;;1.40;;
6864;SDS011;3471;49.678;8.388;2023-05-10T13:55:44;8.70;;;1.80;;
6864;SDS011;3471;49.678;8.388;2023-05-10T13:58:10;1.80;;;1.10;;
6864;SDS011;3471;49.678;8.388;2023-05-10T14:00:35;2.10;;;1.20;;
6864;SDS011;3471;49.678;8.388;2023-05-10T14:03:01;2.80;;;1.23;;
6864;SDS011;3471;49.678;8.388;2023-05-10T14:05:27;1.45;;;0.93;;
6864;SDS011;3471;49.678;8.388;2023-05-10T14:07:52;2.40;;;1.35;;
6864;SDS011;3471;49.678;8.388;2023-05-10T14:10:18;2.00;;;1.40;;
6864;SDS011;3471;49.678;8.388;2023-05-10T14:12:44;1.70;;;1.23;;
6864;SDS011;3471;49.678;8.388;2023-05-10T14:15:10;1.60;;;0.90;;
6864;SDS011;3471;49.678;8.388;2023-05-10T14:17:36;25.70;;;3.35;;
6864;SDS011;3471;49.678;8.388;2023-05-10T14:20:02;4.80;;;2.40;;
6864;SDS011;3471;49.678;8.388;2023-05-10T14:22:28;1.60;;;1.15;;
6864;SDS011;3471;49.678;8.388;2023-05-10T14:24:54;2.07;;;1.30;;
6864;SDS011;3471;49.678;8.388;2023-05-10T14:27:20;7.90;;;1.20;;
6864;SDS011;3471;49.678;8.388;2023-05-10T14:29:46;6.00;;;1.40;;
6864;SDS011;3471;49.678;8.388;2023-05-10T14:32:12;2.20;;;1.30;;
6864;SDS011;3471;49.678;8.388;2023-05-10T14:34:38;2.20;;;1.43;;
6864;SDS011;3471;49.678;8.388;2023-05-10T14:37:03;2.40;;;1.20;;
6864;SDS011;3471;49.678;8.388;2023-05-10T14:39:29;1.80;;;1.17;;
6864;SDS011;3471;49.678;8.388;2023-05-10T14:41:55;2.20;;;1.30;;
6864;SDS011;3471;49.678;8.388;2023-05-10T14:44:21;8.55;;;1.50;;
6864;SDS011;3471;49.678;8.388;2023-05-10T14:46:46;2.25;;;1.20;;
6864;SDS011;3471;49.678;8.388;2023-05-10T14:49:13;4.20;;;1.10;;
6864;SDS011;3471;49.678;8.388;2023-05-10T14:51:38;1.60;;;1.20;;
6864;SDS011;3471;49.678;8.388;2023-05-10T14:54:04;1.50;;;1.40;;
6864;SDS011;3471;49.678;8.388;2023-05-10T14:56:30;1.50;;;1.00;;
6864;SDS011;3471;49.678;8.388;2023-05-10T14:58:56;5.82;;;1.48;;
6864;SDS011;3471;49.678;8.388;2023-05-10T15:01:22;1.70;;;1.10;;
6864;SDS011;3471;49.678;8.388;2023-05-10T15:03:47;2.00;;;1.00;;
6864;SDS011;3471;49.678;8.388;2023-05-10T15:06:13;1.40;;;0.80;;
6864;SDS011;3471;49.678;8.388;2023-05-10T15:08:40;1.42;;;0.80;;
6864;SDS011;3471;49.678;8.388;2023-05-10T15:11:06;1.70;;;0.80;;
6864;SDS011;3471;49.678;8.388;2023-05-10T15:13:32;2.00;;;0.90;;
6864;SDS011;3471;49.678;8.388;2023-05-10T15:15:57;2.00;;;1.20;;
6864;SDS011;3471;49.678;8.388;2023-05-10T15:18:23;1.40;;;0.90;;
6864;SDS011;3471;49.678;8.388;2023-05-10T15:20:48;2.00;;;1.30;;
6864;SDS011;3471;49.678;8.388;2023-05-10T15:23:14;8.95;;;1.20;;
6864;SDS011;3471;49.678;8.388;2023-05-10T15:25:40;1.80;;;1.10;;
6864;SDS011;3471;49.678;8.388;2023-05-10T15:28:05;1.80;;;1.40;;
6864;SDS011;3471;49.678;8.388;2023-05-10T15:30:31;1.60;;;0.90;;
6864;SDS011;3471;49.678;8.388;2023-05-10T15:32:56;1.70;;;1.13;;
6864;SDS011;3471;49.678;8.388;2023-05-10T15:35:22;1.50;;;1.00;;
6864;SDS011;3471;49.678;8.388;2023-05-10T15:37:48;3.00;;;1.20;;
6864;SDS011;3471;49.678;8.388;2023-05-10T15:40:14;1.60;;;0.90;;
6864;SDS011;3471;49.678;8.388;2023-05-10T15:42:40;1.60;;;1.13;;
6864;SDS011;3471;49.678;8.388;2023-05-10T15:45:06;1.88;;;1.27;;
6864;SDS011;3471;49.678;8.388;2023-05-10T15:47:32;1.97;;;1.50;;
6864;SDS011;3471;49.678;8.388;2023-05-10T15:49:58;3.23;;;1.10;;
6864;SDS011;3471;49.678;8.388;2023-05-10T15:52:23;2.70;;;0.90;;
6864;SDS011;3471;49.678;8.388;2023-05-10T15:54:49;3.80;;;1.50;;
6864;SDS011;3471;49.678;8.388;2023-05-10T15:57:15;1.45;;;0.93;;